| time (UTC) | temp F | wind direction | speed knots | gust knots | rain 1hr in | rain 24hr in | rain mn in | humidity % | barometer mb |
| 20260505021509 | 49 | 207 | 0.0 | 0.0 | 0.00 | 0.00 | 0.00 | 42 | 1011.7 |
| 20260505020008 | 49 | 207 | 0.0 | 0.0 | 0.00 | 0.00 | 0.00 | 47 | 1011.8 |
| 20260505014544 | 50 | 207 | 0.0 | 0.0 | 0.00 | 0.00 | 0.00 | 51 | 1011.7 |
| 20260505013039 | 51 | 207 | 0.0 | 0.0 | 0.00 | 0.00 | 0.00 | 52 | 1011.5 |
| 20260505011518 | 51 | 180 | 0.0 | 3.5 | 0.00 | 0.00 | 0.00 | 55 | 1011.3 |
| 20260505010013 | 52 | 214 | 0.0 | 2.6 | 0.00 | 0.00 | 0.00 | 57 | 1011.2 |
| 20260505004551 | 52 | 192 | 0.0 | 4.3 | 0.00 | 0.00 | 0.00 | 60 | 1010.9 |
| 20260505003047 | 53 | 221 | 0.9 | 4.3 | 0.00 | 0.00 | 0.00 | 63 | 1010.6 |
| 20260505001525 | 53 | 217 | 2.6 | 7.8 | 0.00 | 0.00 | 0.00 | 66 | 1010.4 |
| 20260505000032 | 54 | 232 | 2.6 | 7.0 | 0.00 | 0.00 | 0.00 | 68 | 1010.1 |
| 20260504234612 | 55 | 286 | 2.6 | 7.8 | 0.00 | 0.00 | 0.00 | 69 | 1010.0 |
| 20260504233057 | 56 | 224 | 1.7 | 8.7 | 0.00 | 0.00 | 0.00 | 69 | 1009.8 |
| 20260504231539 | 57 | 269 | 2.6 | 9.6 | 0.00 | 0.00 | 0.00 | 68 | 1009.7 |
| 20260504230034 | 58 | 234 | 1.7 | 7.8 | 0.00 | 0.00 | 0.00 | 65 | 1009.6 |
| 20260504224529 | 58 | 252 | 1.7 | 13.9 | 0.00 | 0.00 | 0.00 | 63 | 1009.4 |
| 20260504223025 | 59 | 246 | 4.3 | 10.4 | 0.00 | 0.00 | 0.00 | 59 | 1009.4 |
| 20260504221525 | 60 | 243 | 6.1 | 17.4 | 0.00 | 0.00 | 0.00 | 55 | 1009.4 |
| 20260504220030 | 62 | 257 | 4.3 | 8.7 | 0.00 | 0.00 | 0.00 | 53 | 1009.4 |
| 20260504214512 | 62 | 199 | 3.5 | 8.7 | 0.00 | 0.00 | 0.00 | 52 | 1009.4 |
| 20260504213009 | 63 | 209 | 6.1 | 11.3 | 0.00 | 0.00 | 0.00 | 50 | 1009.3 |
| 20260504211546 | 64 | 215 | 7.0 | 13.9 | 0.00 | 0.00 | 0.00 | 48 | 1009.1 |
| 20260504210042 | 65 | 254 | 2.6 | 10.4 | 0.00 | 0.00 | 0.00 | 47 | 1009.4 |
| 20260504204535 | 65 | 203 | 5.2 | 15.6 | 0.00 | 0.00 | 0.00 | 46 | 1009.4 |
| 20260504203015 | 65 | 281 | 4.3 | 10.4 | 0.00 | 0.00 | 0.00 | 47 | 1009.1 |
| 20260504201556 | 66 | 231 | 4.3 | 11.3 | 0.00 | 0.00 | 0.00 | 47 | 1009.1 |
| 20260504200053 | 65 | 277 | 6.1 | 14.8 | 0.00 | 0.00 | 0.00 | 46 | 1009.3 |
| 20260504194529 | 66 | 234 | 5.2 | 13.0 | 0.00 | 0.00 | 0.00 | 45 | 1009.1 |
| 20260504193025 | 66 | 211 | 5.2 | 13.9 | 0.00 | 0.00 | 0.00 | 45 | 1009.2 |
| 20260504191503 | 66 | 212 | 6.1 | 14.8 | 0.00 | 0.00 | 0.00 | 44 | 1009.0 |
| 20260504190108 | 66 | 235 | 4.3 | 13.0 | 0.00 | 0.00 | 0.00 | 44 | 1009.2 |
| 20260504184537 | 66 | 207 | 5.2 | 11.3 | 0.00 | 0.00 | 0.00 | 43 | 1009.5 |
| 20260504183038 | 66 | 248 | 6.1 | 14.8 | 0.00 | 0.00 | 0.00 | 41 | 1009.6 |
| 20260504181517 | 66 | 247 | 5.2 | 15.6 | 0.00 | 0.00 | 0.00 | 41 | 1009.8 |
| 20260504180006 | 67 | 251 | 5.2 | 18.2 | 0.00 | 0.00 | 0.00 | 39 | 1009.8 |
| 20260504174552 | 67 | 216 | 5.2 | 14.8 | 0.00 | 0.00 | 0.00 | 36 | 1009.6 |
| 20260504173048 | 68 | 194 | 4.3 | 11.3 | 0.00 | 0.00 | 0.00 | 36 | 1009.8 |
| 20260504171548 | 67 | 209 | 6.1 | 21.7 | 0.00 | 0.00 | 0.00 | 34 | 1009.9 |
| 20260504120107 | 52 | 217 | 0.0 | 3.5 | 0.00 | 0.00 | 0.00 | 67 | 1012.2 |
| 20260504081548 | 32 | 288 | 0.0 | 0.0 | 0.00 | 0.00 | 0.00 | 26 | 1011.6 |
| 20260504060106 | 29 | 288 | 0.0 | 0.0 | 0.00 | 0.00 | 0.00 | 39 | 1011.1 |
| 20260504050015 | 31 | 288 | 0.0 | 0.0 | 0.00 | 0.00 | 0.00 | 45 | 1011.2 |
| 20260504044516 | 31 | 288 | 0.0 | 0.0 | 0.00 | 0.00 | 0.00 | 51 | 1011.3 |
| 20260504043101 | 31 | 288 | 0.0 | 0.0 | 0.00 | 0.00 | 0.00 | 54 | 1011.2 |
| 20260504041552 | 31 | 288 | 0.0 | 0.0 | 0.00 | 0.00 | 0.00 | 57 | 1011.2 |
| 20260504040034 | 32 | 288 | 0.0 | 0.0 | 0.00 | 0.00 | 0.00 | 59 | 1011.1 |
| 20260504034530 | 32 | 288 | 0.0 | 0.0 | 0.00 | 0.00 | 0.00 | 62 | 1011.1 |
| 20260504033011 | 33 | 288 | 0.0 | 0.0 | 0.00 | 0.00 | 0.00 | 63 | 1010.9 |
| 20260504031514 | 33 | 288 | 0.0 | 0.0 | 0.00 | 0.00 | 0.00 | 65 | 1010.8 |
| 20260504030050 | 34 | 288 | 0.0 | 0.0 | 0.00 | 0.00 | 0.00 | 67 | 1010.7 |
| 20260504024549 | 34 | 288 | 0.0 | 0.0 | 0.00 | 0.00 | 0.00 | 69 | 1010.6 |
| 20260504023029 | 35 | 288 | 0.0 | 0.0 | 0.00 | 0.00 | 0.00 | 71 | 1010.6 |